Groom Creek, Arizona
Current Conditions -  °F | °C
As of 6:53 AM on Thursday 23 Oct 2014 (Local Time) from KPRC Reporting Station
Clear Clear  
Wind Chill: 46°   Ceiling: Unl
Heat Index: 46°   Visibility: 10mi
Dew Point: 35°   Wind: 0mph
Humidity: 66%   Direction: NA
Pressure: 30.23"   Gusts: NA
Location:  34.5368°N, 112.512°W
Report Text: KPRC 231353Z 00000KT 10SM CLR 08/02 A3023 RMK AO2 SLP189 T00780017
Loading
Personal Weather Stations






























Interactive Weather Map
Tropical Storm Tracking
New forecast layout! Learn more

10-Day Weather Forecast

Advertisements
Track Severe Weather on mobile